Etusivu
METAR-TAF:

METAR-TAF

Lentoasemat :

Hagåtña, Guam, Yhdysvallat

Antonio B. Won Patin kansainvälinen lentoasema

Leveyspiiri: 13-29N, Pituuspiiri: 144-48E, korkeus merenpinnasta: 91 m

Tämänhetkinen sää

Tämä raportti tehtiin 25 minuuttia sitten, kello 20.54 UTC
Tuuli 3 kn koillisesta
Lämpötila 26°C
Kosteus 100%
Ilmanpaine 1010 hPa
Näkyvyys: 16.1 km
selkeää

METAR: PGUM 172054Z 05003KT 10SM CLR 26/26 A2982 RMK AO2 SLP090 60003 T02610256 51012

Aika: 07:19 (21:19 UTC)

Sääennuste

Tämä raportti tehtiin 3 tuntia ja 50 minuuttia sitten, kello 17.29 UTC
Ennuste voimassa 17. päivästä klo 18 UTC - 18. päivään klo 24 UTC
Tuuli 10 kn idästä/kaakosta
Näkyvyys: 10 km
Hajanaisia pilviä 2000 ft:n korkeudessa
Hajanaisia pilviä 4500 ft:n korkeudessa
Hajonneita pilviä 10000 ft:n korkeudessa
sadekuuroja näköpiirissä

TAF: PGUM 171729Z 1718/1824 12010KT P6SM VCSH SCT020 SCT045 BKN100

Säähavainnot ja -ennusteet yli 4000 lentoasemalta (METAR- ja TAF-raportit).

Käytössä olevat sääasemat on merkitty karttaan keltaisilla ja punaisilla pisteillä.

Aseta hiiri pisteen päälle nähdäksesi sääaseman nimen.

Klikkaa sitten nähdäksesi säähavainnot ja -ennusteet.

Kartan vaihtaminen: klikkaa mustalla rastilla varustettuja vihreitä pisteitä, niin voit zoomata sisään; viivalla varustettua vihreää pistettä, niin voit zoomata ulos tai vihreitä nuolia, niin pääset viereisille kartoille.


METAR-TAF: